Terminal Aerodrome Forecast
Issued by NWS Sterling, VA

Home | Current Version | Previous Version | Text Only | Print | Product List | Glossary On
Versions: 1 2 3 4 5 6 7 8 9 10 11 12 13 14 15 16 17 18 19 20 21 22
000
FTUS41 KLWX 220800 AAA
TAFBWI
TAF AMD
KBWI 220841Z 2209/2312 00000KT P6SM BKN009
     FM221000 00000KT P6SM OVC015
     FM221400 VRB03KT P6SM OVC050
     FM222200 16007KT P6SM SCT050
     FM230600 00000KT P6SM BKN200=

USA.gov is the U.S. government's official web portal to all federal, state and local government web resources and services.